sensor_id;sensor_type;location;lat;lon;timestamp;pressure;altitude;pressure_sealevel;temperature;humidity
71105;BME280;58760;48.716;8.962;2023-03-15T00:01:35;96057.41;;;1.08;97.87
71105;BME280;58760;48.716;8.962;2023-03-15T00:04:00;96066.34;;;1.05;97.51
71105;BME280;58760;48.716;8.962;2023-03-15T00:06:25;96085.56;;;1.04;97.47
71105;BME280;58760;48.716;8.962;2023-03-15T00:08:51;96087.22;;;1.05;97.59
71105;BME280;58760;48.716;8.962;2023-03-15T00:11:17;96089.84;;;1.05;97.55
71105;BME280;58760;48.716;8.962;2023-03-15T00:13:44;96084.63;;;1.05;97.40
71105;BME280;58760;48.716;8.962;2023-03-15T00:16:10;96085.31;;;1.08;97.64
71105;BME280;58760;48.716;8.962;2023-03-15T00:18:36;96101.25;;;1.04;97.44
71105;BME280;58760;48.716;8.962;2023-03-15T00:21:01;96107.53;;;1.02;96.89
71105;BME280;58760;48.716;8.962;2023-03-15T00:23:27;96109.78;;;1.07;96.91
71105;BME280;58760;48.716;8.962;2023-03-15T00:25:53;96101.81;;;1.08;96.33
71105;BME280;58760;48.716;8.962;2023-03-15T00:28:18;96109.41;;;1.11;96.13
71105;BME280;58760;48.716;8.962;2023-03-15T00:30:44;96119.81;;;1.22;96.19
71105;BME280;58760;48.716;8.962;2023-03-15T00:33:11;96110.44;;;1.20;96.07
71105;BME280;58760;48.716;8.962;2023-03-15T00:35:43;96127.75;;;1.21;96.37
71105;BME280;58760;48.716;8.962;2023-03-15T00:38:09;96130.63;;;1.18;96.13
71105;BME280;58760;48.716;8.962;2023-03-15T00:40:35;96133.41;;;1.05;96.21
71105;BME280;58760;48.716;8.962;2023-03-15T00:43:01;96143.75;;;1.07;96.35
71105;BME280;58760;48.716;8.962;2023-03-15T00:45:27;96151.69;;;1.05;96.12
71105;BME280;58760;48.716;8.962;2023-03-15T00:47:53;96161.78;;;1.10;95.78
71105;BME280;58760;48.716;8.962;2023-03-15T00:50:20;96161.22;;;1.06;95.92
71105;BME280;58760;48.716;8.962;2023-03-15T00:52:46;96158.59;;;1.06;95.55
71105;BME280;58760;48.716;8.962;2023-03-15T00:55:15;96155.84;;;1.08;95.60
71105;BME280;58760;48.716;8.962;2023-03-15T00:57:42;96157.41;;;1.10;95.59
71105;BME280;58760;48.716;8.962;2023-03-15T01:00:11;96168.53;;;1.12;95.31
71105;BME280;58760;48.716;8.962;2023-03-15T01:02:38;96160.59;;;1.14;94.80
71105;BME280;58760;48.716;8.962;2023-03-15T01:05:05;96169.81;;;1.18;94.67
71105;BME280;58760;48.716;8.962;2023-03-15T01:07:31;96172.81;;;1.13;94.44
71105;BME280;58760;48.716;8.962;2023-03-15T01:09:58;96184.56;;;1.08;94.64
71105;BME280;58760;48.716;8.962;2023-03-15T01:12:23;96187.31;;;1.06;94.23
71105;BME280;58760;48.716;8.962;2023-03-15T01:14:48;96185.06;;;1.01;94.12
71105;BME280;58760;48.716;8.962;2023-03-15T01:17:14;96187.25;;;0.96;93.87
71105;BME280;58760;48.716;8.962;2023-03-15T01:19:39;96188.66;;;1.00;93.75
71105;BME280;58760;48.716;8.962;2023-03-15T01:22:04;96195.78;;;0.98;93.18
71105;BME280;58760;48.716;8.962;2023-03-15T01:24:30;96183.69;;;0.97;93.39
71105;BME280;58760;48.716;8.962;2023-03-15T01:26:55;96187.25;;;0.96;92.49
71105;BME280;58760;48.716;8.962;2023-03-15T01:29:21;96195.06;;;0.96;92.54
71105;BME280;58760;48.716;8.962;2023-03-15T01:31:46;96196.06;;;0.84;92.73
71105;BME280;58760;48.716;8.962;2023-03-15T01:34:11;96196.75;;;0.86;92.47
71105;BME280;58760;48.716;8.962;2023-03-15T01:36:36;96207.22;;;0.75;92.62
71105;BME280;58760;48.716;8.962;2023-03-15T01:39:02;96199.63;;;0.83;92.00
71105;BME280;58760;48.716;8.962;2023-03-15T01:41:27;96208.19;;;0.74;91.92
71105;BME280;58760;48.716;8.962;2023-03-15T01:43:53;96213.75;;;0.70;91.75
71105;BME280;58760;48.716;8.962;2023-03-15T01:46:32;96213.41;;;0.74;92.22
71105;BME280;58760;48.716;8.962;2023-03-15T01:54:01;96224.53;;;0.76;90.27
71105;BME280;58760;48.716;8.962;2023-03-15T01:56:29;96235.81;;;0.77;89.78
71105;BME280;58760;48.716;8.962;2023-03-15T01:58:56;96221.22;;;0.63;90.11
71105;BME280;58760;48.716;8.962;2023-03-15T02:01:22;96226.59;;;0.50;91.06
71105;BME280;58760;48.716;8.962;2023-03-15T02:03:53;96231.78;;;0.39;91.48
71105;BME280;58760;48.716;8.962;2023-03-15T02:06:20;96231.69;;;0.41;91.47
71105;BME280;58760;48.716;8.962;2023-03-15T02:08:49;96234.03;;;0.33;91.52
71105;BME280;58760;48.716;8.962;2023-03-15T02:11:18;96236.66;;;0.44;91.50
71105;BME280;58760;48.716;8.962;2023-03-15T02:13:47;96243.91;;;0.40;91.32
71105;BME280;58760;48.716;8.962;2023-03-15T02:16:12;96242.34;;;0.49;91.12
71105;BME280;58760;48.716;8.962;2023-03-15T02:18:38;96246.16;;;0.45;90.42
71105;BME280;58760;48.716;8.962;2023-03-15T02:23:52;96254.44;;;0.28;90.72
71105;BME280;58760;48.716;8.962;2023-03-15T02:26:23;96259.28;;;0.10;90.92
71105;BME280;58760;48.716;8.962;2023-03-15T02:28:50;96254.19;;;0.09;91.39
71105;BME280;58760;48.716;8.962;2023-03-15T02:31:16;96253.63;;;0.16;90.08
71105;BME280;58760;48.716;8.962;2023-03-15T02:33:45;96253.00;;;0.13;90.39
71105;BME280;58760;48.716;8.962;2023-03-15T02:38:46;96264.84;;;0.06;91.36
71105;BME280;58760;48.716;8.962;2023-03-15T02:41:15;96267.88;;;-0.12;91.48
71105;BME280;58760;48.716;8.962;2023-03-15T02:43:42;96273.78;;;-0.21;92.03
71105;BME280;58760;48.716;8.962;2023-03-15T02:46:09;96283.31;;;-0.32;92.73
71105;BME280;58760;48.716;8.962;2023-03-15T02:48:36;96280.38;;;-0.28;93.49
71105;BME280;58760;48.716;8.962;2023-03-15T02:51:02;96286.38;;;-0.15;93.71
71105;BME280;58760;48.716;8.962;2023-03-15T02:53:29;96286.38;;;-0.15;93.57
71105;BME280;58760;48.716;8.962;2023-03-15T02:55:55;96285.06;;;-0.20;93.64
71105;BME280;58760;48.716;8.962;2023-03-15T02:58:20;96299.13;;;-0.23;93.65
71105;BME280;58760;48.716;8.962;2023-03-15T03:00:45;96302.47;;;-0.10;94.05
71105;BME280;58760;48.716;8.962;2023-03-15T03:03:11;96302.00;;;-0.15;93.75
71105;BME280;58760;48.716;8.962;2023-03-15T03:05:36;96306.84;;;-0.21;93.40
71105;BME280;58760;48.716;8.962;2023-03-15T03:08:01;96313.72;;;-0.20;93.51
71105;BME280;58760;48.716;8.962;2023-03-15T03:10:27;96317.22;;;-0.32;93.07
71105;BME280;58760;48.716;8.962;2023-03-15T03:12:53;96321.56;;;-0.44;93.14
71105;BME280;58760;48.716;8.962;2023-03-15T03:15:19;96330.06;;;-0.42;93.30
71105;BME280;58760;48.716;8.962;2023-03-15T03:17:44;96331.03;;;-0.43;93.72
71105;BME280;58760;48.716;8.962;2023-03-15T03:20:11;96338.13;;;-0.45;93.94
71105;BME280;58760;48.716;8.962;2023-03-15T03:22:38;96341.16;;;-0.51;94.19
71105;BME280;58760;48.716;8.962;2023-03-15T03:25:05;96340.19;;;-0.37;93.99
71105;BME280;58760;48.716;8.962;2023-03-15T03:27:31;96352.34;;;-0.49;93.99
71105;BME280;58760;48.716;8.962;2023-03-15T03:29:57;96362.69;;;-0.60;94.40
71105;BME280;58760;48.716;8.962;2023-03-15T03:32:23;96358.41;;;-0.61;94.82
71105;BME280;58760;48.716;8.962;2023-03-15T03:34:48;96373.31;;;-0.63;95.13
71105;BME280;58760;48.716;8.962;2023-03-15T03:37:16;96360.59;;;-0.68;95.24
71105;BME280;58760;48.716;8.962;2023-03-15T03:39:42;96374.69;;;-0.70;95.46
71105;BME280;58760;48.716;8.962;2023-03-15T03:42:08;96373.00;;;-0.71;95.44
71105;BME280;58760;48.716;8.962;2023-03-15T03:44:34;96377.16;;;-0.56;95.58
71105;BME280;58760;48.716;8.962;2023-03-15T03:46:59;96392.31;;;-0.74;95.38
71105;BME280;58760;48.716;8.962;2023-03-15T03:49:24;96379.81;;;-0.81;95.84
71105;BME280;58760;48.716;8.962;2023-03-15T03:51:50;96386.47;;;-0.77;96.28
71105;BME280;58760;48.716;8.962;2023-03-15T03:54:15;96389.94;;;-0.89;95.62
71105;BME280;58760;48.716;8.962;2023-03-15T03:56:40;96401.72;;;-0.96;95.23
71105;BME280;58760;48.716;8.962;2023-03-15T03:59:06;96393.78;;;-0.82;94.92
71105;BME280;58760;48.716;8.962;2023-03-15T04:01:31;96396.16;;;-0.67;93.46
71105;BME280;58760;48.716;8.962;2023-03-15T04:03:58;96411.59;;;-0.76;93.08
71105;BME280;58760;48.716;8.962;2023-03-15T04:06:23;96406.25;;;-0.62;93.41
71105;BME280;58760;48.716;8.962;2023-03-15T04:08:48;96412.66;;;-0.55;93.87
71105;BME280;58760;48.716;8.962;2023-03-15T04:11:14;96408.25;;;-0.29;92.00
71105;BME280;58760;48.716;8.962;2023-03-15T04:13:42;96411.59;;;-0.40;90.92
71105;BME280;58760;48.716;8.962;2023-03-15T04:16:07;96423.50;;;-0.36;90.39
71105;BME280;58760;48.716;8.962;2023-03-15T04:18:33;96415.94;;;-0.28;90.13
71105;BME280;58760;48.716;8.962;2023-03-15T04:20:58;96425.53;;;-0.28;89.62
71105;BME280;58760;48.716;8.962;2023-03-15T04:23:23;96430.19;;;-0.21;89.68
71105;BME280;58760;48.716;8.962;2023-03-15T04:25:52;96423.31;;;-0.22;88.54
71105;BME280;58760;48.716;8.962;2023-03-15T04:28:22;96425.13;;;-0.35;89.17
71105;BME280;58760;48.716;8.962;2023-03-15T04:30:48;96433.25;;;-0.27;88.55
71105;BME280;58760;48.716;8.962;2023-03-15T04:33:14;96430.34;;;-0.35;89.53
71105;BME280;58760;48.716;8.962;2023-03-15T04:35:40;96437.34;;;-0.48;90.13
71105;BME280;58760;48.716;8.962;2023-03-15T04:38:07;96438.81;;;-0.44;90.58
71105;BME280;58760;48.716;8.962;2023-03-15T04:40:32;96445.53;;;-0.52;90.56
71105;BME280;58760;48.716;8.962;2023-03-15T04:43:03;96451.16;;;-0.59;90.88
71105;BME280;58760;48.716;8.962;2023-03-15T04:45:30;96451.22;;;-0.47;90.75
71105;BME280;58760;48.716;8.962;2023-03-15T04:47:56;96451.34;;;-0.49;90.25
71105;BME280;58760;48.716;8.962;2023-03-15T04:50:22;96454.66;;;-0.47;90.29
71105;BME280;58760;48.716;8.962;2023-03-15T04:52:48;96446.53;;;-0.55;90.47
71105;BME280;58760;48.716;8.962;2023-03-15T04:55:14;96448.66;;;-0.60;90.46
71105;BME280;58760;48.716;8.962;2023-03-15T04:57:39;96454.38;;;-0.55;90.78
71105;BME280;58760;48.716;8.962;2023-03-15T05:00:07;96448.75;;;-0.49;91.04
71105;BME280;58760;48.716;8.962;2023-03-15T05:02:34;96457.53;;;-0.63;91.15
71105;BME280;58760;48.716;8.962;2023-03-15T05:05:04;96456.03;;;-0.54;91.77
71105;BME280;58760;48.716;8.962;2023-03-15T05:07:33;96447.72;;;-0.59;92.01
71105;BME280;58760;48.716;8.962;2023-03-15T05:09:58;96444.59;;;-0.64;92.14
71105;BME280;58760;48.716;8.962;2023-03-15T05:12:24;96444.56;;;-0.52;91.90
71105;BME280;58760;48.716;8.962;2023-03-15T05:14:49;96451.69;;;-0.66;91.98
71105;BME280;58760;48.716;8.962;2023-03-15T05:17:15;96445.00;;;-0.70;92.36
71105;BME280;58760;48.716;8.962;2023-03-15T05:19:40;96442.28;;;-0.56;92.54
71105;BME280;58760;48.716;8.962;2023-03-15T05:22:06;96440.00;;;-0.61;91.54
71105;BME280;58760;48.716;8.962;2023-03-15T05:24:32;96438.47;;;-0.76;91.18
71105;BME280;58760;48.716;8.962;2023-03-15T05:26:57;96441.47;;;-0.69;92.06
71105;BME280;58760;48.716;8.962;2023-03-15T05:29:23;96450.88;;;-0.79;91.88
71105;BME280;58760;48.716;8.962;2023-03-15T05:31:48;96456.72;;;-0.88;91.90
71105;BME280;58760;48.716;8.962;2023-03-15T05:34:14;96456.94;;;-0.91;92.79
71105;BME280;58760;48.716;8.962;2023-03-15T05:36:40;96455.69;;;-0.98;92.66
71105;BME280;58760;48.716;8.962;2023-03-15T05:39:06;96459.13;;;-0.98;92.35
71105;BME280;58760;48.716;8.962;2023-03-15T05:41:32;96461.72;;;-1.11;92.18
71105;BME280;58760;48.716;8.962;2023-03-15T05:43:58;96460.88;;;-1.11;92.73
71105;BME280;58760;48.716;8.962;2023-03-15T05:46:23;96459.63;;;-1.31;92.61
71105;BME280;58760;48.716;8.962;2023-03-15T05:48:48;96459.09;;;-1.23;92.93
71105;BME280;58760;48.716;8.962;2023-03-15T05:51:14;96464.72;;;-1.17;93.92
71105;BME280;58760;48.716;8.962;2023-03-15T05:53:40;96464.31;;;-1.11;93.92
71105;BME280;58760;48.716;8.962;2023-03-15T05:56:05;96468.56;;;-1.10;93.83
71105;BME280;58760;48.716;8.962;2023-03-15T05:58:31;96465.34;;;-1.00;93.57
71105;BME280;58760;48.716;8.962;2023-03-15T06:00:56;96464.19;;;-0.96;93.21
71105;BME280;58760;48.716;8.962;2023-03-15T06:03:21;96469.41;;;-0.84;92.73
71105;BME280;58760;48.716;8.962;2023-03-15T06:05:47;96464.59;;;-0.65;92.95
71105;BME280;58760;48.716;8.962;2023-03-15T06:08:12;96471.59;;;-0.65;93.32
71105;BME280;58760;48.716;8.962;2023-03-15T06:10:38;96478.16;;;-0.60;93.40
71105;BME280;58760;48.716;8.962;2023-03-15T06:13:03;96474.22;;;-0.65;92.83
71105;BME280;58760;48.716;8.962;2023-03-15T06:15:29;96478.13;;;-0.47;91.79
71105;BME280;58760;48.716;8.962;2023-03-15T06:17:55;96484.47;;;-0.51;90.80
71105;BME280;58760;48.716;8.962;2023-03-15T06:20:20;96484.47;;;-0.51;90.91
71105;BME280;58760;48.716;8.962;2023-03-15T06:22:46;96486.88;;;-0.48;90.62
71105;BME280;58760;48.716;8.962;2023-03-15T06:25:11;96486.38;;;-0.53;90.52
71105;BME280;58760;48.716;8.962;2023-03-15T06:27:37;96489.59;;;-0.49;90.68
71105;BME280;58760;48.716;8.962;2023-03-15T06:30:03;96495.00;;;-0.40;90.96
71105;BME280;58760;48.716;8.962;2023-03-15T06:32:29;96491.53;;;-0.28;90.25
71105;BME280;58760;48.716;8.962;2023-03-15T06:34:54;96483.28;;;-0.22;89.85
71105;BME280;58760;48.716;8.962;2023-03-15T06:37:20;96490.06;;;-0.32;89.59
71105;BME280;58760;48.716;8.962;2023-03-15T06:39:46;96493.31;;;-0.28;89.82
71105;BME280;58760;48.716;8.962;2023-03-15T06:42:12;96489.00;;;-0.17;90.23
71105;BME280;58760;48.716;8.962;2023-03-15T06:44:41;96485.75;;;-0.08;90.02
71105;BME280;58760;48.716;8.962;2023-03-15T06:47:08;96487.19;;;-0.04;90.13
71105;BME280;58760;48.716;8.962;2023-03-15T06:49:34;96485.47;;;0.08;90.02
71105;BME280;58760;48.716;8.962;2023-03-15T06:51:59;96486.88;;;0.25;89.56
71105;BME280;58760;48.716;8.962;2023-03-15T06:54:25;96491.31;;;0.35;88.90
71105;BME280;58760;48.716;8.962;2023-03-15T06:56:50;96501.34;;;0.52;88.45
71105;BME280;58760;48.716;8.962;2023-03-15T06:59:16;96504.56;;;0.56;88.55
71105;BME280;58760;48.716;8.962;2023-03-15T07:01:41;96494.69;;;0.83;87.58
71105;BME280;58760;48.716;8.962;2023-03-15T07:04:07;96496.53;;;0.94;86.18
71105;BME280;58760;48.716;8.962;2023-03-15T07:06:33;96506.88;;;1.07;85.33
71105;BME280;58760;48.716;8.962;2023-03-15T07:08:59;96498.56;;;1.24;85.89
71105;BME280;58760;48.716;8.962;2023-03-15T07:11:24;96498.38;;;1.49;84.88
71105;BME280;58760;48.716;8.962;2023-03-15T07:13:49;96504.66;;;1.91;83.08
71105;BME280;58760;48.716;8.962;2023-03-15T07:16:15;96512.09;;;2.29;80.96
71105;BME280;58760;48.716;8.962;2023-03-15T07:18:40;96503.25;;;2.41;79.42
71105;BME280;58760;48.716;8.962;2023-03-15T07:21:06;96506.84;;;2.29;79.49
71105;BME280;58760;48.716;8.962;2023-03-15T07:23:32;96518.75;;;2.22;79.82
71105;BME280;58760;48.716;8.962;2023-03-15T07:25:58;96514.75;;;2.06;80.40
71105;BME280;58760;48.716;8.962;2023-03-15T07:28:25;96513.66;;;2.09;80.75
71105;BME280;58760;48.716;8.962;2023-03-15T07:31:11;96519.97;;;2.06;81.42
71105;BME280;58760;48.716;8.962;2023-03-15T07:33:37;96527.84;;;1.95;81.34
71105;BME280;58760;48.716;8.962;2023-03-15T07:36:04;96537.72;;;1.81;81.81
71105;BME280;58760;48.716;8.962;2023-03-15T07:38:30;96526.69;;;1.88;82.02
71105;BME280;58760;48.716;8.962;2023-03-15T07:40:56;96528.09;;;1.81;81.79
71105;BME280;58760;48.716;8.962;2023-03-15T07:43:22;96532.34;;;1.82;82.52
71105;BME280;58760;48.716;8.962;2023-03-15T07:45:47;96536.06;;;1.80;82.92
71105;BME280;58760;48.716;8.962;2023-03-15T07:48:13;96535.94;;;1.92;82.85
71105;BME280;58760;48.716;8.962;2023-03-15T07:50:39;96528.56;;;1.97;81.86
71105;BME280;58760;48.716;8.962;2023-03-15T07:53:05;96528.19;;;2.13;82.56
71105;BME280;58760;48.716;8.962;2023-03-15T07:55:32;96535.19;;;2.13;82.06
71105;BME280;58760;48.716;8.962;2023-03-15T07:57:57;96534.97;;;2.04;82.93
71105;BME280;58760;48.716;8.962;2023-03-15T08:00:23;96532.97;;;2.08;83.36
71105;BME280;58760;48.716;8.962;2023-03-15T08:02:48;96534.72;;;2.19;82.82
71105;BME280;58760;48.716;8.962;2023-03-15T08:05:14;96540.31;;;2.03;81.19
71105;BME280;58760;48.716;8.962;2023-03-15T08:07:43;96539.72;;;1.99;82.63
71105;BME280;58760;48.716;8.962;2023-03-15T08:10:09;96545.66;;;2.13;82.02
71105;BME280;58760;48.716;8.962;2023-03-15T08:12:34;96538.25;;;2.29;82.11
71105;BME280;58760;48.716;8.962;2023-03-15T08:15:00;96531.06;;;2.53;84.66
71105;BME280;58760;48.716;8.962;2023-03-15T08:17:25;96532.59;;;2.55;81.24
71105;BME280;58760;48.716;8.962;2023-03-15T08:19:51;96539.59;;;2.66;79.00
71105;BME280;58760;48.716;8.962;2023-03-15T08:22:16;96531.78;;;2.87;79.36
71105;BME280;58760;48.716;8.962;2023-03-15T08:24:42;96538.22;;;3.14;79.19
71105;BME280;58760;48.716;8.962;2023-03-15T08:27:07;96535.50;;;3.26;78.30
71105;BME280;58760;48.716;8.962;2023-03-15T08:29:33;96542.69;;;3.24;77.97
71105;BME280;58760;48.716;8.962;2023-03-15T08:31:58;96540.00;;;3.14;75.62
71105;BME280;58760;48.716;8.962;2023-03-15T08:34:24;96538.84;;;3.28;75.32
71105;BME280;58760;48.716;8.962;2023-03-15T08:36:50;96541.47;;;3.28;74.82
71105;BME280;58760;48.716;8.962;2023-03-15T08:39:16;96538.00;;;3.48;74.05
71105;BME280;58760;48.716;8.962;2023-03-15T08:41:41;96543.09;;;3.70;71.51
71105;BME280;58760;48.716;8.962;2023-03-15T08:44:08;96541.66;;;3.87;68.68
71105;BME280;58760;48.716;8.962;2023-03-15T08:46:34;96546.25;;;3.94;70.07
71105;BME280;58760;48.716;8.962;2023-03-15T08:48:59;96546.09;;;4.36;69.54
71105;BME280;58760;48.716;8.962;2023-03-15T08:51:24;96539.31;;;4.23;66.21
71105;BME280;58760;48.716;8.962;2023-03-15T08:53:51;96554.34;;;4.12;67.68
71105;BME280;58760;48.716;8.962;2023-03-15T08:56:17;96557.06;;;4.10;67.55
71105;BME280;58760;48.716;8.962;2023-03-15T08:58:43;96551.31;;;4.26;66.15
71105;BME280;58760;48.716;8.962;2023-03-15T09:01:12;96552.78;;;4.49;66.58
71105;BME280;58760;48.716;8.962;2023-03-15T09:03:38;96564.88;;;4.71;65.26
71105;BME280;58760;48.716;8.962;2023-03-15T09:06:03;96554.22;;;4.82;67.22
71105;BME280;58760;48.716;8.962;2023-03-15T09:08:29;96563.63;;;4.85;66.19
71105;BME280;58760;48.716;8.962;2023-03-15T09:10:57;96559.06;;;4.87;66.04
71105;BME280;58760;48.716;8.962;2023-03-15T09:13:23;96563.59;;;4.65;64.03
71105;BME280;58760;48.716;8.962;2023-03-15T09:15:50;96566.00;;;4.88;64.05
71105;BME280;58760;48.716;8.962;2023-03-15T09:18:16;96563.75;;;4.64;62.32
71105;BME280;58760;48.716;8.962;2023-03-15T09:20:42;96572.75;;;4.71;62.39
71105;BME280;58760;48.716;8.962;2023-03-15T09:23:07;96578.44;;;4.95;63.28
71105;BME280;58760;48.716;8.962;2023-03-15T09:25:33;96564.19;;;4.88;62.64
71105;BME280;58760;48.716;8.962;2023-03-15T09:27:59;96570.94;;;4.71;62.77
71105;BME280;58760;48.716;8.962;2023-03-15T09:30:24;96571.03;;;4.51;64.26
71105;BME280;58760;48.716;8.962;2023-03-15T09:32:50;96562.31;;;4.41;62.73
71105;BME280;58760;48.716;8.962;2023-03-15T09:35:18;96569.06;;;4.34;62.87
71105;BME280;58760;48.716;8.962;2023-03-15T09:37:45;96570.81;;;4.23;61.52
71105;BME280;58760;48.716;8.962;2023-03-15T09:46:25;96592.66;;;3.94;63.62
71105;BME280;58760;48.716;8.962;2023-03-15T09:49:00;96586.75;;;4.01;64.81
71105;BME280;58760;48.716;8.962;2023-03-15T09:51:32;96580.34;;;4.25;66.49
71105;BME280;58760;48.716;8.962;2023-03-15T09:54:10;96587.13;;;4.27;64.92
71105;BME280;58760;48.716;8.962;2023-03-15T09:56:40;96589.31;;;4.62;65.36
71105;BME280;58760;48.716;8.962;2023-03-15T09:59:11;96593.81;;;4.90;64.23
71105;BME280;58760;48.716;8.962;2023-03-15T10:01:39;96585.50;;;5.23;64.29
71105;BME280;58760;48.716;8.962;2023-03-15T10:04:29;96580.66;;;5.48;65.29
71105;BME280;58760;48.716;8.962;2023-03-15T10:06:57;96579.41;;;5.61;64.72
71105;BME280;58760;48.716;8.962;2023-03-15T10:09:25;96589.09;;;5.42;63.30
71105;BME280;58760;48.716;8.962;2023-03-15T10:12:03;96592.44;;;5.05;61.24
71105;BME280;58760;48.716;8.962;2023-03-15T10:14:57;96580.22;;;5.04;65.01
71105;BME280;58760;48.716;8.962;2023-03-15T10:17:35;96576.94;;;5.02;67.03
71105;BME280;58760;48.716;8.962;2023-03-15T10:20:20;96574.72;;;5.26;64.60
71105;BME280;58760;48.716;8.962;2023-03-15T10:22:58;96566.13;;;5.24;61.54
71105;BME280;58760;48.716;8.962;2023-03-15T10:25:31;96575.78;;;5.53;64.22
71105;BME280;58760;48.716;8.962;2023-03-15T10:28:08;96567.59;;;5.75;59.52
71105;BME280;58760;48.716;8.962;2023-03-15T10:30:36;96562.19;;;5.86;58.51
71105;BME280;58760;48.716;8.962;2023-03-15T10:35:52;96549.06;;;6.41;58.77
71105;BME280;58760;48.716;8.962;2023-03-15T10:38:20;96559.47;;;6.42;58.46
71105;BME280;58760;48.716;8.962;2023-03-15T10:40:48;96552.09;;;6.46;58.56
71105;BME280;58760;48.716;8.962;2023-03-15T10:43:21;96558.28;;;6.54;55.89
71105;BME280;58760;48.716;8.962;2023-03-15T10:48:25;96555.44;;;6.65;55.64
71105;BME280;58760;48.716;8.962;2023-03-15T10:50:51;96563.59;;;6.90;56.19
71105;BME280;58760;48.716;8.962;2023-03-15T10:53:18;96559.47;;;6.87;55.25
71105;BME280;58760;48.716;8.962;2023-03-15T10:55:46;96559.69;;;6.94;55.92
71105;BME280;58760;48.716;8.962;2023-03-15T10:58:24;96554.97;;;7.15;57.62
71105;BME280;58760;48.716;8.962;2023-03-15T11:01:06;96552.66;;;6.67;54.51
71105;BME280;58760;48.716;8.962;2023-03-15T11:03:35;96564.88;;;6.68;56.54
71105;BME280;58760;48.716;8.962;2023-03-15T11:06:06;96565.50;;;6.79;56.75
71105;BME280;58760;48.716;8.962;2023-03-15T11:08:41;96555.94;;;6.78;54.00
71105;BME280;58760;48.716;8.962;2023-03-15T11:11:07;96558.09;;;6.83;55.64
71105;BME280;58760;48.716;8.962;2023-03-15T11:13:35;96551.72;;;7.03;50.57
71105;BME280;58760;48.716;8.962;2023-03-15T11:16:12;96553.22;;;6.88;52.21
71105;BME280;58760;48.716;8.962;2023-03-15T11:18:46;96557.78;;;6.86;52.57
71105;BME280;58760;48.716;8.962;2023-03-15T11:21:14;96556.88;;;6.60;51.56
71105;BME280;58760;48.716;8.962;2023-03-15T11:23:49;96553.00;;;6.54;50.77
71105;BME280;58760;48.716;8.962;2023-03-15T11:26:21;96558.63;;;6.42;51.83
71105;BME280;58760;48.716;8.962;2023-03-15T11:28:56;96549.75;;;6.43;51.14
71105;BME280;58760;48.716;8.962;2023-03-15T11:31:25;96558.53;;;6.34;50.98
71105;BME280;58760;48.716;8.962;2023-03-15T11:33:55;96559.88;;;6.38;51.36
71105;BME280;58760;48.716;8.962;2023-03-15T11:36:25;96551.63;;;6.60;51.18
71105;BME280;58760;48.716;8.962;2023-03-15T11:38:53;96556.00;;;6.69;51.74
71105;BME280;58760;48.716;8.962;2023-03-15T11:41:29;96555.69;;;6.72;51.05
71105;BME280;58760;48.716;8.962;2023-03-15T11:44:36;96559.00;;;6.74;51.81
71105;BME280;58760;48.716;8.962;2023-03-15T11:47:09;96558.63;;;6.69;50.78
71105;BME280;58760;48.716;8.962;2023-03-15T11:52:07;96558.88;;;6.93;51.47
71105;BME280;58760;48.716;8.962;2023-03-15T11:54:33;96555.09;;;7.13;51.01
71105;BME280;58760;48.716;8.962;2023-03-15T11:59:49;96556.47;;;7.17;50.12
71105;BME280;58760;48.716;8.962;2023-03-15T12:04:46;96557.41;;;7.52;49.95
71105;BME280;58760;48.716;8.962;2023-03-15T12:09:50;96560.06;;;7.77;48.73
71105;BME280;58760;48.716;8.962;2023-03-15T12:22:34;96547.63;;;7.44;48.31
71105;BME280;58760;48.716;8.962;2023-03-15T12:25:14;96548.59;;;7.86;49.13
71105;BME280;58760;48.716;8.962;2023-03-15T12:27:50;96556.72;;;8.19;48.07
71105;BME280;58760;48.716;8.962;2023-03-15T12:30:40;96547.16;;;8.60;46.88
71105;BME280;58760;48.716;8.962;2023-03-15T12:33:14;96544.31;;;8.45;47.57
71105;BME280;58760;48.716;8.962;2023-03-15T12:35:41;96549.78;;;8.52;47.48
71105;BME280;58760;48.716;8.962;2023-03-15T12:38:37;96547.38;;;8.82;46.52
71105;BME280;58760;48.716;8.962;2023-03-15T12:41:07;96554.19;;;8.09;47.43
71105;BME280;58760;48.716;8.962;2023-03-15T12:46:02;96555.16;;;7.39;50.83
71105;BME280;58760;48.716;8.962;2023-03-15T12:48:28;96551.78;;;7.29;52.23
71105;BME280;58760;48.716;8.962;2023-03-15T12:50:57;96551.72;;;7.03;50.88
71105;BME280;58760;48.716;8.962;2023-03-15T12:58:58;96560.63;;;6.30;52.82
71105;BME280;58760;48.716;8.962;2023-03-15T13:01:26;96564.41;;;6.18;53.33
71105;BME280;58760;48.716;8.962;2023-03-15T13:03:55;96560.84;;;6.46;53.66
71105;BME280;58760;48.716;8.962;2023-03-15T13:06:55;96554.03;;;7.06;51.85
71105;BME280;58760;48.716;8.962;2023-03-15T13:09:44;96542.91;;;7.99;49.20
71105;BME280;58760;48.716;8.962;2023-03-15T13:12:19;96536.06;;;9.22;46.36
71105;BME280;58760;48.716;8.962;2023-03-15T13:15:02;96545.28;;;8.44;47.78
71105;BME280;58760;48.716;8.962;2023-03-15T13:17:35;96560.88;;;7.70;50.98
71105;BME280;58760;48.716;8.962;2023-03-15T13:20:39;96556.59;;;7.16;50.77
71105;BME280;58760;48.716;8.962;2023-03-15T13:23:26;96564.75;;;7.05;52.37
71105;BME280;58760;48.716;8.962;2023-03-15T13:26:02;96572.88;;;6.76;53.11
71105;BME280;58760;48.716;8.962;2023-03-15T13:28:38;96563.56;;;6.54;54.59
71105;BME280;58760;48.716;8.962;2023-03-15T13:33:38;96573.34;;;6.07;58.08
71105;BME280;58760;48.716;8.962;2023-03-15T13:36:11;96578.75;;;6.06;60.77
71105;BME280;58760;48.716;8.962;2023-03-15T13:43:43;96611.50;;;4.88;71.71
71105;BME280;58760;48.716;8.962;2023-03-15T13:46:09;96613.50;;;4.56;75.52
71105;BME280;58760;48.716;8.962;2023-03-15T13:48:38;96617.28;;;4.33;77.29
71105;BME280;58760;48.716;8.962;2023-03-15T13:51:22;96632.16;;;3.92;80.48
71105;BME280;58760;48.716;8.962;2023-03-15T13:53:51;96630.19;;;3.85;81.85
71105;BME280;58760;48.716;8.962;2023-03-15T13:56:24;96621.78;;;3.91;82.85
71105;BME280;58760;48.716;8.962;2023-03-15T13:58:51;96619.59;;;4.26;82.43
71105;BME280;58760;48.716;8.962;2023-03-15T14:01:17;96611.81;;;4.45;81.82
71105;BME280;58760;48.716;8.962;2023-03-15T14:03:47;96609.91;;;4.57;81.68
71105;BME280;58760;48.716;8.962;2023-03-15T14:06:21;96611.47;;;4.79;80.96
71105;BME280;58760;48.716;8.962;2023-03-15T14:08:48;96597.28;;;5.39;79.25
71105;BME280;58760;48.716;8.962;2023-03-15T14:11:20;96585.88;;;6.60;76.17